sensor_id;sensor_type;location;lat;lon;timestamp;temperature;humidity
23377;DHT22;14353;46.070;13.222;2023-04-25T00:00:33;20.90;50.00
23377;DHT22;14353;46.070;13.222;2023-04-25T00:02:58;20.90;50.00
23377;DHT22;14353;46.070;13.222;2023-04-25T00:05:26;20.90;50.10
23377;DHT22;14353;46.070;13.222;2023-04-25T00:07:51;20.90;50.10
23377;DHT22;14353;46.070;13.222;2023-04-25T00:10:18;20.90;50.10
23377;DHT22;14353;46.070;13.222;2023-04-25T00:12:44;20.90;50.10
23377;DHT22;14353;46.070;13.222;2023-04-25T00:15:10;20.90;50.10
23377;DHT22;14353;46.070;13.222;2023-04-25T00:17:36;20.90;50.10
23377;DHT22;14353;46.070;13.222;2023-04-25T00:20:04;20.90;50.10
23377;DHT22;14353;46.070;13.222;2023-04-25T00:22:30;20.90;50.10
23377;DHT22;14353;46.070;13.222;2023-04-25T00:24:56;20.90;50.10
23377;DHT22;14353;46.070;13.222;2023-04-25T00:27:25;20.90;50.10
23377;DHT22;14353;46.070;13.222;2023-04-25T00:29:51;20.90;50.10
23377;DHT22;14353;46.070;13.222;2023-04-25T00:32:17;20.90;50.20
23377;DHT22;14353;46.070;13.222;2023-04-25T00:34:43;20.80;50.10
23377;DHT22;14353;46.070;13.222;2023-04-25T00:37:08;20.90;50.10
23377;DHT22;14353;46.070;13.222;2023-04-25T00:39:34;20.90;50.10
23377;DHT22;14353;46.070;13.222;2023-04-25T00:42:01;20.90;50.10
23377;DHT22;14353;46.070;13.222;2023-04-25T00:44:27;20.80;50.10
23377;DHT22;14353;46.070;13.222;2023-04-25T00:46:55;20.80;50.10
23377;DHT22;14353;46.070;13.222;2023-04-25T00:49:20;20.80;50.10
23377;DHT22;14353;46.070;13.222;2023-04-25T00:51:46;20.80;50.10
23377;DHT22;14353;46.070;13.222;2023-04-25T00:54:12;20.80;50.10
23377;DHT22;14353;46.070;13.222;2023-04-25T00:56:39;20.80;50.10
23377;DHT22;14353;46.070;13.222;2023-04-25T00:59:05;20.80;50.10
23377;DHT22;14353;46.070;13.222;2023-04-25T01:01:32;20.80;50.10
23377;DHT22;14353;46.070;13.222;2023-04-25T01:03:58;20.80;50.20
23377;DHT22;14353;46.070;13.222;2023-04-25T01:06:24;20.80;50.10
23377;DHT22;14353;46.070;13.222;2023-04-25T01:08:51;20.80;50.10
23377;DHT22;14353;46.070;13.222;2023-04-25T01:11:17;20.80;50.10
23377;DHT22;14353;46.070;13.222;2023-04-25T01:13:43;20.80;50.10
23377;DHT22;14353;46.070;13.222;2023-04-25T01:16:09;20.80;50.10
23377;DHT22;14353;46.070;13.222;2023-04-25T01:18:34;20.80;50.10
23377;DHT22;14353;46.070;13.222;2023-04-25T01:21:11;20.80;50.10
23377;DHT22;14353;46.070;13.222;2023-04-25T01:23:39;20.80;50.10
23377;DHT22;14353;46.070;13.222;2023-04-25T01:26:06;20.80;50.10
23377;DHT22;14353;46.070;13.222;2023-04-25T01:28:34;20.80;50.20
23377;DHT22;14353;46.070;13.222;2023-04-25T01:31:01;20.80;50.10
23377;DHT22;14353;46.070;13.222;2023-04-25T01:33:27;20.80;50.10
23377;DHT22;14353;46.070;13.222;2023-04-25T01:35:52;20.80;50.10
23377;DHT22;14353;46.070;13.222;2023-04-25T01:38:18;20.70;50.10
23377;DHT22;14353;46.070;13.222;2023-04-25T01:40:45;20.80;50.20
23377;DHT22;14353;46.070;13.222;2023-04-25T01:43:11;20.80;50.10
23377;DHT22;14353;46.070;13.222;2023-04-25T01:45:38;20.80;50.10
23377;DHT22;14353;46.070;13.222;2023-04-25T01:48:11;20.80;50.10
23377;DHT22;14353;46.070;13.222;2023-04-25T01:50:39;20.80;50.10
23377;DHT22;14353;46.070;13.222;2023-04-25T01:53:05;20.70;50.00
23377;DHT22;14353;46.070;13.222;2023-04-25T01:55:31;20.70;50.10
23377;DHT22;14353;46.070;13.222;2023-04-25T01:57:56;20.70;50.10
23377;DHT22;14353;46.070;13.222;2023-04-25T02:00:23;20.70;50.10
23377;DHT22;14353;46.070;13.222;2023-04-25T02:02:48;20.70;50.00
23377;DHT22;14353;46.070;13.222;2023-04-25T02:05:16;20.70;50.10
23377;DHT22;14353;46.070;13.222;2023-04-25T02:07:42;20.70;50.10
23377;DHT22;14353;46.070;13.222;2023-04-25T02:10:08;20.70;50.10
23377;DHT22;14353;46.070;13.222;2023-04-25T02:12:35;20.70;50.10
23377;DHT22;14353;46.070;13.222;2023-04-25T02:15:01;20.70;50.10
23377;DHT22;14353;46.070;13.222;2023-04-25T02:17:27;20.70;50.10
23377;DHT22;14353;46.070;13.222;2023-04-25T02:19:52;20.70;50.10
23377;DHT22;14353;46.070;13.222;2023-04-25T02:22:18;20.70;50.10
23377;DHT22;14353;46.070;13.222;2023-04-25T02:24:44;20.70;50.10
23377;DHT22;14353;46.070;13.222;2023-04-25T02:27:10;20.70;50.10
23377;DHT22;14353;46.070;13.222;2023-04-25T02:29:35;20.70;50.10
23377;DHT22;14353;46.070;13.222;2023-04-25T02:32:01;20.70;50.10
23377;DHT22;14353;46.070;13.222;2023-04-25T02:34:27;20.70;50.10
23377;DHT22;14353;46.070;13.222;2023-04-25T02:36:53;20.60;50.00
23377;DHT22;14353;46.070;13.222;2023-04-25T02:39:18;20.60;50.00
23377;DHT22;14353;46.070;13.222;2023-04-25T02:41:44;20.70;50.10
23377;DHT22;14353;46.070;13.222;2023-04-25T02:44:10;20.60;50.00
23377;DHT22;14353;46.070;13.222;2023-04-25T02:46:36;20.60;49.90
23377;DHT22;14353;46.070;13.222;2023-04-25T02:49:01;20.60;50.00
23377;DHT22;14353;46.070;13.222;2023-04-25T02:51:27;20.60;50.00
23377;DHT22;14353;46.070;13.222;2023-04-25T02:53:53;20.60;50.00
23377;DHT22;14353;46.070;13.222;2023-04-25T02:56:18;20.60;49.90
23377;DHT22;14353;46.070;13.222;2023-04-25T02:58:45;20.60;49.90
23377;DHT22;14353;46.070;13.222;2023-04-25T03:01:10;20.60;50.00
23377;DHT22;14353;46.070;13.222;2023-04-25T03:03:36;20.60;50.00
23377;DHT22;14353;46.070;13.222;2023-04-25T03:06:02;20.60;50.00
23377;DHT22;14353;46.070;13.222;2023-04-25T03:08:28;20.60;49.90
23377;DHT22;14353;46.070;13.222;2023-04-25T03:10:58;20.60;50.00
23377;DHT22;14353;46.070;13.222;2023-04-25T03:13:24;20.60;50.00
23377;DHT22;14353;46.070;13.222;2023-04-25T03:15:50;20.60;50.00
23377;DHT22;14353;46.070;13.222;2023-04-25T03:18:15;20.60;50.00
23377;DHT22;14353;46.070;13.222;2023-04-25T03:20:41;20.60;50.00
23377;DHT22;14353;46.070;13.222;2023-04-25T03:23:07;20.60;50.00
23377;DHT22;14353;46.070;13.222;2023-04-25T03:25:33;20.60;50.00
23377;DHT22;14353;46.070;13.222;2023-04-25T03:27:58;20.60;50.00
23377;DHT22;14353;46.070;13.222;2023-04-25T03:30:24;20.60;50.00
23377;DHT22;14353;46.070;13.222;2023-04-25T03:32:50;20.60;49.90
23377;DHT22;14353;46.070;13.222;2023-04-25T03:35:15;20.60;50.00
23377;DHT22;14353;46.070;13.222;2023-04-25T03:37:41;20.50;49.90
23377;DHT22;14353;46.070;13.222;2023-04-25T03:40:11;20.50;49.90
23377;DHT22;14353;46.070;13.222;2023-04-25T03:42:36;20.50;49.90
23377;DHT22;14353;46.070;13.222;2023-04-25T03:45:05;20.50;49.90
23377;DHT22;14353;46.070;13.222;2023-04-25T03:47:31;20.60;49.90
23377;DHT22;14353;46.070;13.222;2023-04-25T03:49:57;20.50;50.00
23377;DHT22;14353;46.070;13.222;2023-04-25T03:52:22;20.50;49.90
23377;DHT22;14353;46.070;13.222;2023-04-25T03:54:48;20.50;49.90
23377;DHT22;14353;46.070;13.222;2023-04-25T03:57:14;20.50;50.00
23377;DHT22;14353;46.070;13.222;2023-04-25T03:59:40;20.50;49.90
23377;DHT22;14353;46.070;13.222;2023-04-25T04:02:05;20.50;49.90
23377;DHT22;14353;46.070;13.222;2023-04-25T04:04:31;20.50;49.90
23377;DHT22;14353;46.070;13.222;2023-04-25T04:06:57;20.50;50.00
23377;DHT22;14353;46.070;13.222;2023-04-25T04:09:22;20.50;49.90
23377;DHT22;14353;46.070;13.222;2023-04-25T04:11:48;20.50;49.90
23377;DHT22;14353;46.070;13.222;2023-04-25T04:14:14;20.50;49.90
23377;DHT22;14353;46.070;13.222;2023-04-25T04:16:40;20.50;49.90
23377;DHT22;14353;46.070;13.222;2023-04-25T04:19:05;20.50;49.90
23377;DHT22;14353;46.070;13.222;2023-04-25T04:21:31;20.50;49.90
23377;DHT22;14353;46.070;13.222;2023-04-25T04:23:57;20.50;49.90
23377;DHT22;14353;46.070;13.222;2023-04-25T04:26:25;20.50;49.90
23377;DHT22;14353;46.070;13.222;2023-04-25T04:28:51;20.50;49.90
23377;DHT22;14353;46.070;13.222;2023-04-25T04:31:22;20.50;49.80
23377;DHT22;14353;46.070;13.222;2023-04-25T04:33:48;20.50;49.80
23377;DHT22;14353;46.070;13.222;2023-04-25T04:36:13;20.50;49.80
23377;DHT22;14353;46.070;13.222;2023-04-25T04:38:39;20.50;49.80
23377;DHT22;14353;46.070;13.222;2023-04-25T04:41:06;20.50;49.80
23377;DHT22;14353;46.070;13.222;2023-04-25T04:43:32;20.50;49.80
23377;DHT22;14353;46.070;13.222;2023-04-25T04:46:00;20.50;49.80
23377;DHT22;14353;46.070;13.222;2023-04-25T04:48:26;20.50;49.80
23377;DHT22;14353;46.070;13.222;2023-04-25T04:50:52;20.50;49.70
23377;DHT22;14353;46.070;13.222;2023-04-25T04:53:18;20.50;49.70
23377;DHT22;14353;46.070;13.222;2023-04-25T04:55:44;20.50;49.60
23377;DHT22;14353;46.070;13.222;2023-04-25T04:58:09;20.50;49.60
23377;DHT22;14353;46.070;13.222;2023-04-25T05:00:35;20.50;49.60
23377;DHT22;14353;46.070;13.222;2023-04-25T05:03:01;20.50;49.60
23377;DHT22;14353;46.070;13.222;2023-04-25T05:05:26;20.50;49.60
23377;DHT22;14353;46.070;13.222;2023-04-25T05:07:52;20.50;49.50
23377;DHT22;14353;46.070;13.222;2023-04-25T05:10:19;20.50;49.50
23377;DHT22;14353;46.070;13.222;2023-04-25T05:12:44;20.50;49.50
23377;DHT22;14353;46.070;13.222;2023-04-25T05:15:10;20.50;49.50
23377;DHT22;14353;46.070;13.222;2023-04-25T05:17:36;20.60;49.40
23377;DHT22;14353;46.070;13.222;2023-04-25T05:20:03;20.50;49.40
23377;DHT22;14353;46.070;13.222;2023-04-25T05:22:31;20.60;49.40
23377;DHT22;14353;46.070;13.222;2023-04-25T05:24:56;20.60;49.30
23377;DHT22;14353;46.070;13.222;2023-04-25T05:27:22;20.60;49.30
23377;DHT22;14353;46.070;13.222;2023-04-25T05:29:48;20.60;49.20
23377;DHT22;14353;46.070;13.222;2023-04-25T05:32:13;20.60;49.20
23377;DHT22;14353;46.070;13.222;2023-04-25T05:34:39;20.60;49.10
23377;DHT22;14353;46.070;13.222;2023-04-25T05:37:05;20.70;49.20
23377;DHT22;14353;46.070;13.222;2023-04-25T05:39:31;20.70;49.10
23377;DHT22;14353;46.070;13.222;2023-04-25T05:41:57;20.70;49.00
23377;DHT22;14353;46.070;13.222;2023-04-25T05:44:23;20.70;48.90
23377;DHT22;14353;46.070;13.222;2023-04-25T05:46:48;20.80;48.80
23377;DHT22;14353;46.070;13.222;2023-04-25T05:49:16;20.80;48.70
23377;DHT22;14353;46.070;13.222;2023-04-25T05:51:41;20.80;48.60
23377;DHT22;14353;46.070;13.222;2023-04-25T05:54:07;20.90;48.50
23377;DHT22;14353;46.070;13.222;2023-04-25T05:56:32;20.80;48.50
23377;DHT22;14353;46.070;13.222;2023-04-25T05:58:58;20.80;48.50
23377;DHT22;14353;46.070;13.222;2023-04-25T06:01:24;20.80;48.50
23377;DHT22;14353;46.070;13.222;2023-04-25T06:03:50;20.80;48.60
23377;DHT22;14353;46.070;13.222;2023-04-25T06:06:18;20.80;48.70
23377;DHT22;14353;46.070;13.222;2023-04-25T06:08:43;20.80;48.70
23377;DHT22;14353;46.070;13.222;2023-04-25T06:11:10;20.70;48.70
23377;DHT22;14353;46.070;13.222;2023-04-25T06:13:36;20.70;48.70
23377;DHT22;14353;46.070;13.222;2023-04-25T06:16:01;20.70;48.70
23377;DHT22;14353;46.070;13.222;2023-04-25T06:18:27;20.70;48.70
23377;DHT22;14353;46.070;13.222;2023-04-25T06:20:53;20.70;48.80
23377;DHT22;14353;46.070;13.222;2023-04-25T06:23:18;20.70;48.70
23377;DHT22;14353;46.070;13.222;2023-04-25T06:25:44;20.70;48.70
23377;DHT22;14353;46.070;13.222;2023-04-25T06:28:10;20.70;48.70
23377;DHT22;14353;46.070;13.222;2023-04-25T06:30:35;20.70;48.70
23377;DHT22;14353;46.070;13.222;2023-04-25T06:33:01;20.70;48.70
23377;DHT22;14353;46.070;13.222;2023-04-25T06:35:27;20.70;48.70
23377;DHT22;14353;46.070;13.222;2023-04-25T06:37:52;20.70;48.60
23377;DHT22;14353;46.070;13.222;2023-04-25T06:40:18;20.70;48.60
23377;DHT22;14353;46.070;13.222;2023-04-25T06:42:44;20.70;48.50
23377;DHT22;14353;46.070;13.222;2023-04-25T06:45:10;20.70;48.50
23377;DHT22;14353;46.070;13.222;2023-04-25T06:47:35;20.80;48.60
23377;DHT22;14353;46.070;13.222;2023-04-25T06:50:01;20.80;48.50
23377;DHT22;14353;46.070;13.222;2023-04-25T06:52:27;20.80;48.50
23377;DHT22;14353;46.070;13.222;2023-04-25T06:54:53;20.80;48.50
23377;DHT22;14353;46.070;13.222;2023-04-25T06:57:18;20.70;48.50
23377;DHT22;14353;46.070;13.222;2023-04-25T06:59:44;20.70;48.50
23377;DHT22;14353;46.070;13.222;2023-04-25T07:02:10;20.70;48.50
23377;DHT22;14353;46.070;13.222;2023-04-25T07:04:36;20.70;48.60
23377;DHT22;14353;46.070;13.222;2023-04-25T07:07:02;20.70;48.60
23377;DHT22;14353;46.070;13.222;2023-04-25T07:09:28;20.70;48.60
23377;DHT22;14353;46.070;13.222;2023-04-25T07:11:54;20.60;48.60
23377;DHT22;14353;46.070;13.222;2023-04-25T07:14:20;20.60;48.60
23377;DHT22;14353;46.070;13.222;2023-04-25T07:16:46;20.60;48.60
23377;DHT22;14353;46.070;13.222;2023-04-25T07:19:12;20.60;48.70
23377;DHT22;14353;46.070;13.222;2023-04-25T07:21:37;20.60;48.60
23377;DHT22;14353;46.070;13.222;2023-04-25T07:24:03;20.60;48.60
23377;DHT22;14353;46.070;13.222;2023-04-25T07:26:29;20.60;48.60
23377;DHT22;14353;46.070;13.222;2023-04-25T07:28:55;20.60;48.60
23377;DHT22;14353;46.070;13.222;2023-04-25T07:31:21;20.60;48.60
23377;DHT22;14353;46.070;13.222;2023-04-25T07:33:47;20.60;48.60
23377;DHT22;14353;46.070;13.222;2023-04-25T07:36:13;20.60;48.60
23377;DHT22;14353;46.070;13.222;2023-04-25T07:38:40;20.60;48.70
23377;DHT22;14353;46.070;13.222;2023-04-25T07:41:06;20.60;48.70
23377;DHT22;14353;46.070;13.222;2023-04-25T07:43:32;20.60;48.70
23377;DHT22;14353;46.070;13.222;2023-04-25T07:45:57;20.60;48.70
23377;DHT22;14353;46.070;13.222;2023-04-25T07:48:23;20.60;48.70
23377;DHT22;14353;46.070;13.222;2023-04-25T07:50:49;20.60;48.70
23377;DHT22;14353;46.070;13.222;2023-04-25T07:53:16;20.60;48.70
23377;DHT22;14353;46.070;13.222;2023-04-25T07:55:43;20.50;48.70
23377;DHT22;14353;46.070;13.222;2023-04-25T07:58:09;20.50;48.70
23377;DHT22;14353;46.070;13.222;2023-04-25T08:00:35;20.50;48.70
23377;DHT22;14353;46.070;13.222;2023-04-25T08:03:01;20.50;48.70
23377;DHT22;14353;46.070;13.222;2023-04-25T08:05:28;20.50;48.70
23377;DHT22;14353;46.070;13.222;2023-04-25T08:07:55;20.60;48.80
23377;DHT22;14353;46.070;13.222;2023-04-25T08:10:22;20.50;48.70
23377;DHT22;14353;46.070;13.222;2023-04-25T08:12:48;20.50;48.70
23377;DHT22;14353;46.070;13.222;2023-04-25T08:15:14;20.50;48.70
23377;DHT22;14353;46.070;13.222;2023-04-25T08:17:40;20.50;48.70
23377;DHT22;14353;46.070;13.222;2023-04-25T08:20:06;20.50;48.80
23377;DHT22;14353;46.070;13.222;2023-04-25T08:22:32;20.50;49.10
23377;DHT22;14353;46.070;13.222;2023-04-25T08:24:59;20.50;48.70
23377;DHT22;14353;46.070;13.222;2023-04-25T08:27:25;20.50;48.80
23377;DHT22;14353;46.070;13.222;2023-04-25T08:29:50;20.50;48.80
23377;DHT22;14353;46.070;13.222;2023-04-25T08:32:16;20.50;48.80
23377;DHT22;14353;46.070;13.222;2023-04-25T08:34:42;20.50;48.80
23377;DHT22;14353;46.070;13.222;2023-04-25T08:37:09;20.50;48.80
23377;DHT22;14353;46.070;13.222;2023-04-25T08:39:36;20.50;48.80
23377;DHT22;14353;46.070;13.222;2023-04-25T08:42:06;20.50;48.80
23377;DHT22;14353;46.070;13.222;2023-04-25T08:44:35;20.50;48.70
23377;DHT22;14353;46.070;13.222;2023-04-25T08:47:03;20.50;48.70
23377;DHT22;14353;46.070;13.222;2023-04-25T08:49:33;20.50;48.80
23377;DHT22;14353;46.070;13.222;2023-04-25T08:52:02;20.50;48.80
23377;DHT22;14353;46.070;13.222;2023-04-25T08:54:30;20.50;48.80
23377;DHT22;14353;46.070;13.222;2023-04-25T08:56:57;20.50;48.70
23377;DHT22;14353;46.070;13.222;2023-04-25T08:59:23;20.40;48.70
23377;DHT22;14353;46.070;13.222;2023-04-25T09:01:49;20.40;48.80
23377;DHT22;14353;46.070;13.222;2023-04-25T09:04:15;20.50;48.80
23377;DHT22;14353;46.070;13.222;2023-04-25T09:06:41;20.50;48.80
23377;DHT22;14353;46.070;13.222;2023-04-25T09:09:08;20.50;48.80
23377;DHT22;14353;46.070;13.222;2023-04-25T09:11:35;20.40;48.70
23377;DHT22;14353;46.070;13.222;2023-04-25T09:14:18;20.40;48.80
23377;DHT22;14353;46.070;13.222;2023-04-25T09:19:32;20.40;48.80
23377;DHT22;14353;46.070;13.222;2023-04-25T09:22:00;20.40;48.80
23377;DHT22;14353;46.070;13.222;2023-04-25T09:26:59;20.50;48.70
23377;DHT22;14353;46.070;13.222;2023-04-25T09:29:35;20.50;48.80
23377;DHT22;14353;46.070;13.222;2023-04-25T09:34:42;20.50;48.60
23377;DHT22;14353;46.070;13.222;2023-04-25T09:37:09;20.50;48.50
23377;DHT22;14353;46.070;13.222;2023-04-25T09:39:37;20.60;48.60
23377;DHT22;14353;46.070;13.222;2023-04-25T09:42:04;20.60;48.50
23377;DHT22;14353;46.070;13.222;2023-04-25T09:44:29;20.60;48.40
23377;DHT22;14353;46.070;13.222;2023-04-25T09:46:55;20.60;48.30
23377;DHT22;14353;46.070;13.222;2023-04-25T09:49:21;20.70;48.30
23377;DHT22;14353;46.070;13.222;2023-04-25T09:51:57;20.70;48.30
23377;DHT22;14353;46.070;13.222;2023-04-25T09:54:26;20.70;48.30
23377;DHT22;14353;46.070;13.222;2023-04-25T09:56:53;20.70;48.20
23377;DHT22;14353;46.070;13.222;2023-04-25T09:59:22;20.70;48.20
23377;DHT22;14353;46.070;13.222;2023-04-25T10:01:49;20.70;48.20
23377;DHT22;14353;46.070;13.222;2023-04-25T10:04:24;20.70;48.10
23377;DHT22;14353;46.070;13.222;2023-04-25T10:06:53;20.70;48.10
23377;DHT22;14353;46.070;13.222;2023-04-25T10:09:25;20.70;48.10
23377;DHT22;14353;46.070;13.222;2023-04-25T10:11:51;20.80;48.10
23377;DHT22;14353;46.070;13.222;2023-04-25T10:14:18;20.80;48.70
23377;DHT22;14353;46.070;13.222;2023-04-25T10:16:45;20.80;48.00
23377;DHT22;14353;46.070;13.222;2023-04-25T10:19:11;20.80;47.90
23377;DHT22;14353;46.070;13.222;2023-04-25T10:21:48;20.80;47.80
23377;DHT22;14353;46.070;13.222;2023-04-25T10:24:15;20.80;47.80
23377;DHT22;14353;46.070;13.222;2023-04-25T10:26:41;20.80;47.90
23377;DHT22;14353;46.070;13.222;2023-04-25T10:29:07;20.90;47.80
23377;DHT22;14353;46.070;13.222;2023-04-25T10:31:45;20.90;47.80
23377;DHT22;14353;46.070;13.222;2023-04-25T10:34:12;20.90;47.70
23377;DHT22;14353;46.070;13.222;2023-04-25T10:36:37;20.90;47.70
23377;DHT22;14353;46.070;13.222;2023-04-25T10:39:05;20.90;48.30
23377;DHT22;14353;46.070;13.222;2023-04-25T10:41:47;20.90;47.60
23377;DHT22;14353;46.070;13.222;2023-04-25T10:44:16;21.00;47.60
23377;DHT22;14353;46.070;13.222;2023-04-25T10:46:41;21.00;47.50
23377;DHT22;14353;46.070;13.222;2023-04-25T10:49:09;21.00;47.60
23377;DHT22;14353;46.070;13.222;2023-04-25T10:51:40;21.00;47.50
23377;DHT22;14353;46.070;13.222;2023-04-25T10:54:08;21.00;47.50
23377;DHT22;14353;46.070;13.222;2023-04-25T10:56:38;21.00;47.50
23377;DHT22;14353;46.070;13.222;2023-04-25T11:01:46;21.10;47.50
23377;DHT22;14353;46.070;13.222;2023-04-25T11:10:03;21.10;47.40
23377;DHT22;14353;46.070;13.222;2023-04-25T11:12:31;21.10;47.30
23377;DHT22;14353;46.070;13.222;2023-04-25T11:15:07;21.10;47.30
23377;DHT22;14353;46.070;13.222;2023-04-25T11:17:33;21.10;47.30
23377;DHT22;14353;46.070;13.222;2023-04-25T11:19:59;21.10;47.20
23377;DHT22;14353;46.070;13.222;2023-04-25T11:22:27;21.10;47.30
23377;DHT22;14353;46.070;13.222;2023-04-25T11:24:53;21.10;47.20
23377;DHT22;14353;46.070;13.222;2023-04-25T11:27:18;21.10;47.20
23377;DHT22;14353;46.070;13.222;2023-04-25T11:29:44;21.20;47.20
23377;DHT22;14353;46.070;13.222;2023-04-25T11:32:14;21.20;47.20
23377;DHT22;14353;46.070;13.222;2023-04-25T11:34:43;21.20;47.20
23377;DHT22;14353;46.070;13.222;2023-04-25T11:37:09;21.20;47.10
23377;DHT22;14353;46.070;13.222;2023-04-25T11:39:37;21.30;47.10
23377;DHT22;14353;46.070;13.222;2023-04-25T11:42:04;21.20;46.80
23377;DHT22;14353;46.070;13.222;2023-04-25T11:44:31;21.30;46.90
23377;DHT22;14353;46.070;13.222;2023-04-25T11:46:56;21.30;46.80
23377;DHT22;14353;46.070;13.222;2023-04-25T11:49:22;21.30;46.70
23377;DHT22;14353;46.070;13.222;2023-04-25T11:51:50;21.40;46.70
23377;DHT22;14353;46.070;13.222;2023-04-25T11:54:16;21.40;46.70
23377;DHT22;14353;46.070;13.222;2023-04-25T11:56:45;21.40;46.60
23377;DHT22;14353;46.070;13.222;2023-04-25T11:59:11;21.40;46.50
23377;DHT22;14353;46.070;13.222;2023-04-25T12:01:39;21.50;47.20
23377;DHT22;14353;46.070;13.222;2023-04-25T12:04:15;21.50;46.40
23377;DHT22;14353;46.070;13.222;2023-04-25T12:06:42;21.50;46.40
23377;DHT22;14353;46.070;13.222;2023-04-25T12:09:12;21.60;47.00
23377;DHT22;14353;46.070;13.222;2023-04-25T12:11:42;21.60;46.90
23377;DHT22;14353;46.070;13.222;2023-04-25T12:14:12;21.60;46.10
23377;DHT22;14353;46.070;13.222;2023-04-25T12:16:45;21.70;46.00
23377;DHT22;14353;46.070;13.222;2023-04-25T12:19:16;21.70;45.90
23377;DHT22;14353;46.070;13.222;2023-04-25T12:21:43;21.70;45.90
23377;DHT22;14353;46.070;13.222;2023-04-25T12:27:03;21.70;45.80
23377;DHT22;14353;46.070;13.222;2023-04-25T12:29:31;21.70;45.90
23377;DHT22;14353;46.070;13.222;2023-04-25T12:31:58;21.70;45.90
23377;DHT22;14353;46.070;13.222;2023-04-25T12:34:24;21.70;45.90
23377;DHT22;14353;46.070;13.222;2023-04-25T12:36:51;21.70;45.80
23377;DHT22;14353;46.070;13.222;2023-04-25T12:39:18;21.70;45.80
23377;DHT22;14353;46.070;13.222;2023-04-25T12:41:45;21.70;45.90
23377;DHT22;14353;46.070;13.222;2023-04-25T12:44:12;21.70;45.90
23377;DHT22;14353;46.070;13.222;2023-04-25T12:46:37;21.70;45.90
23377;DHT22;14353;46.070;13.222;2023-04-25T12:49:04;21.70;45.90
23377;DHT22;14353;46.070;13.222;2023-04-25T12:51:31;21.60;45.90
23377;DHT22;14353;46.070;13.222;2023-04-25T12:53:58;21.60;45.90
23377;DHT22;14353;46.070;13.222;2023-04-25T12:56:26;21.60;45.90
23377;DHT22;14353;46.070;13.222;2023-04-25T12:58:53;21.70;46.00
23377;DHT22;14353;46.070;13.222;2023-04-25T13:01:19;21.70;46.00
23377;DHT22;14353;46.070;13.222;2023-04-25T13:03:45;21.70;46.00
23377;DHT22;14353;46.070;13.222;2023-04-25T13:06:11;21.70;46.00
23377;DHT22;14353;46.070;13.222;2023-04-25T13:08:38;21.70;46.00
23377;DHT22;14353;46.070;13.222;2023-04-25T13:11:05;21.70;46.00
23377;DHT22;14353;46.070;13.222;2023-04-25T13:13:31;21.70;46.00
23377;DHT22;14353;46.070;13.222;2023-04-25T13:16:01;21.70;46.00
23377;DHT22;14353;46.070;13.222;2023-04-25T13:18:28;21.70;45.90
23377;DHT22;14353;46.070;13.222;2023-04-25T13:20:54;21.80;45.90
23377;DHT22;14353;46.070;13.222;2023-04-25T13:23:20;21.80;45.80
23377;DHT22;14353;46.070;13.222;2023-04-25T13:25:46;21.90;45.80
23377;DHT22;14353;46.070;13.222;2023-04-25T13:28:12;21.90;45.70
23377;DHT22;14353;46.070;13.222;2023-04-25T13:30:38;21.90;45.60
23377;DHT22;14353;46.070;13.222;2023-04-25T13:33:04;21.90;45.50
23377;DHT22;14353;46.070;13.222;2023-04-25T13:35:33;22.00;45.50
23377;DHT22;14353;46.070;13.222;2023-04-25T13:37:59;22.00;45.40
23377;DHT22;14353;46.070;13.222;2023-04-25T13:40:25;22.10;45.40
23377;DHT22;14353;46.070;13.222;2023-04-25T13:42:52;22.10;45.40
23377;DHT22;14353;46.070;13.222;2023-04-25T13:45:18;22.10;45.30
23377;DHT22;14353;46.070;13.222;2023-04-25T13:47:44;22.10;45.20
23377;DHT22;14353;46.070;13.222;2023-04-25T13:50:09;22.10;45.30
23377;DHT22;14353;46.070;13.222;2023-04-25T13:52:35;22.10;45.30
23377;DHT22;14353;46.070;13.222;2023-04-25T13:55:02;22.20;45.30
23377;DHT22;14353;46.070;13.222;2023-04-25T13:57:30;22.20;45.30
23377;DHT22;14353;46.070;13.222;2023-04-25T13:59:56;22.20;45.30
23377;DHT22;14353;46.070;13.222;2023-04-25T14:02:21;22.20;45.30
23377;DHT22;14353;46.070;13.222;2023-04-25T14:04:47;22.20;45.30
23377;DHT22;14353;46.070;13.222;2023-04-25T14:07:14;22.20;45.20
23377;DHT22;14353;46.070;13.222;2023-04-25T14:09:42;22.30;45.30
23377;DHT22;14353;46.070;13.222;2023-04-25T14:12:07;22.30;45.20
23377;DHT22;14353;46.070;13.222;2023-04-25T14:14:33;22.30;45.20
23377;DHT22;14353;46.070;13.222;2023-04-25T14:16:59;22.30;45.10
23377;DHT22;14353;46.070;13.222;2023-04-25T14:19:25;22.40;45.10
23377;DHT22;14353;46.070;13.222;2023-04-25T14:21:50;22.40;45.10
23377;DHT22;14353;46.070;13.222;2023-04-25T14:24:16;22.40;45.10
23377;DHT22;14353;46.070;13.222;2023-04-25T14:26:42;22.40;45.00
23377;DHT22;14353;46.070;13.222;2023-04-25T14:29:10;22.40;45.00
23377;DHT22;14353;46.070;13.222;2023-04-25T14:31:37;22.50;45.00
23377;DHT22;14353;46.070;13.222;2023-04-25T14:34:04;22.50;44.90
23377;DHT22;14353;46.070;13.222;2023-04-25T14:36:31;22.50;44.80
23377;DHT22;14353;46.070;13.222;2023-04-25T14:39:00;22.50;44.80
23377;DHT22;14353;46.070;13.222;2023-04-25T14:41:27;22.60;44.80
23377;DHT22;14353;46.070;13.222;2023-04-25T14:43:52;22.60;44.80
23377;DHT22;14353;46.070;13.222;2023-04-25T14:46:21;22.60;44.70
23377;DHT22;14353;46.070;13.222;2023-04-25T14:48:48;22.60;44.70
23377;DHT22;14353;46.070;13.222;2023-04-25T14:51:14;22.60;44.60
23377;DHT22;14353;46.070;13.222;2023-04-25T14:53:40;22.60;44.60
23377;DHT22;14353;46.070;13.222;2023-04-25T14:56:06;22.70;44.60
23377;DHT22;14353;46.070;13.222;2023-04-25T14:58:33;22.70;44.60
23377;DHT22;14353;46.070;13.222;2023-04-25T15:00:59;22.70;44.60
23377;DHT22;14353;46.070;13.222;2023-04-25T15:03:25;22.70;44.50
23377;DHT22;14353;46.070;13.222;2023-04-25T15:05:51;22.80;44.40
23377;DHT22;14353;46.070;13.222;2023-04-25T15:08:17;22.80;44.40
23377;DHT22;14353;46.070;13.222;2023-04-25T15:10:43;22.90;44.30
23377;DHT22;14353;46.070;13.222;2023-04-25T15:13:10;22.90;44.20
23377;DHT22;14353;46.070;13.222;2023-04-25T15:15:36;22.90;44.20
23377;DHT22;14353;46.070;13.222;2023-04-25T15:18:02;22.90;44.20
23377;DHT22;14353;46.070;13.222;2023-04-25T15:20:28;22.90;44.10
23377;DHT22;14353;46.070;13.222;2023-04-25T15:22:53;22.90;44.20
23377;DHT22;14353;46.070;13.222;2023-04-25T15:25:20;22.90;44.20
23377;DHT22;14353;46.070;13.222;2023-04-25T15:27:46;22.90;44.20
23377;DHT22;14353;46.070;13.222;2023-04-25T15:30:17;22.90;44.20